Terminal Aerodrome Forecast
Issued by NWS

Home | Current Version | Previous Version | Text Only | Print | Product List | Glossary On
Versions: 1 2 3 4 5 6 7 8 9 10 11 12 13 14 15 16 17 18 19 20 21 22 23 24 25 26 27 28 29 30 31
224
FTUS43 KDLH 241040 AAA
TAFHYR
TAF AMD
KHYR 241040Z 2411/2506 03010G18KT P6SM VCSH BKN022 OVC030
     FM241400 04014G21KT 4SM -SN BKN015 OVC020
     FM241900 03015G23KT 2SM -SN OVC012
      TEMPO 2420/2423 3/4SM -SN BR BKN009
     FM250200 01013G22KT 4SM -SN OVC012=

USA.gov is the U.S. government's official web portal to all federal, state and local government web resources and services.